Alma — WDF2845 — position and weather

sailwx.info

Track history (hours):
 
Tides and Currents Weather Stations Pressure Air Temp Water Temp Dewpoint Dewpoint Depression Visibility Wind Speed Wind Dir Waves Ship Positions

Alma

Owner: National Park Service, San Francisco, CA. More information available from US FCC via Universal Licensing System and Coast Guard Vessel Documentation Center.

Last reported at 2018-Jun-16 23:35 UTC. Time now 2018-Jun-22 03:43 UTC.
Position N 37°49' W 122°25'.

Length 20 m; draft 1.6 m.

Type: Sailing vessel. MMSI: 367432550.

Date/timePositionNaut miles runAvg speedWind from/ knotsBaromVisibWave heightAir tempDewpointWater temp
2018-Jun-16 23:35N 37°49' W 122°25'0 0.0
2018-Jun-16 23:30N 37°49' W 122°25'0 0.0
2018-Jun-16 23:00N 37°49' W 122°25'1 2.4
2018-Jun-16 22:30N 37°48' W 122°24'0 0.6
2018-Jun-16 22:00N 37°48' W 122°24'1 1.2
2018-Jun-16 21:30N 37°48' W 122°23'3 6.4
2018-Jun-16 21:00N 37°51' W 122°26'1 3.0
2018-Jun-16 20:30N 37°49' W 122°26'1 1.1
2018-Jun-16 20:00N 37°49' W 122°25'0 0.0
2018-Jun-16 19:30N 37°49' W 122°25'0 0.0
2018-Jun-16 19:00N 37°49' W 122°25'0 0.0
2018-Jun-16 18:30N 37°49' W 122°25'0 0.0
2018-Jun-16 18:00N 37°49' W 122°25'0 0.0
2018-Jun-16 17:30N 37°49' W 122°25'0 0.0
2018-Jun-16 17:00N 37°49' W 122°25'0 0.0
2018-Jun-16 16:30N 37°49' W 122°25'0 0.0
2018-Jun-16 16:00N 37°49' W 122°25'0 0.0
2018-Jun-15 22:33N 37°49' W 122°25'0 0.0
2018-Jun-15 22:30N 37°49' W 122°25'0 0.1
2018-Jun-15 22:00N 37°49' W 122°25'2 4.7
2018-Jun-15 21:30N 37°48' W 122°22'0 0.8
2018-Jun-15 21:00N 37°48' W 122°22'2 3.9
2018-Jun-15 20:30N 37°50' W 122°24'2 3.7
2018-Jun-15 20:00N 37°52' W 122°25'1 2.0
2018-Jun-15 19:30N 37°52' W 122°26'2 4.6
2018-Jun-15 19:00N 37°52' W 122°28'0 0.3
2018-Jun-15 18:30N 37°52' W 122°28'2 4.5
2018-Jun-15 18:00N 37°50' W 122°27'1 3.0
2018-Jun-15 17:30N 37°49' W 122°26'0 0.6
2018-Jun-15 17:00N 37°49' W 122°25'0 0.0
2018-Jun-15 16:30N 37°49' W 122°25'0 0.0
2018-Jun-15 16:00N 37°49' W 122°25'0 0.0
2018-Jun-15 15:30N 37°49' W 122°25'0 0.0
2018-Jun-15 15:00N 37°49' W 122°25'  
2018-Jun-09 23:24N 37°49' W 122°25'0 0.0
2018-Jun-09 23:00N 37°49' W 122°25'0 0.6
2018-Jun-09 22:30N 37°49' W 122°26'2 4.3
2018-Jun-09 22:01N 37°50' W 122°28'0 0.6
2018-Jun-09 21:31N 37°50' W 122°27'1 1.5
2018-Jun-09 21:01N 37°49' W 122°27'1 2.1
2018-Jun-09 20:31N 37°49' W 122°26'0 0.6
2018-Jun-09 20:00N 37°49' W 122°25'0 0.0
2018-Jun-09 19:30N 37°49' W 122°25'0 0.0
2018-Jun-09 19:01N 37°49' W 122°25'0 0.0
2018-Jun-09 18:30N 37°49' W 122°25'0 0.0
2018-Jun-09 18:01N 37°49' W 122°25'0 0.0
2018-Jun-09 17:31N 37°49' W 122°25'0 0.0
2018-Jun-09 17:01N 37°49' W 122°25'0 0.0
2018-Jun-09 16:30N 37°49' W 122°25'0 0.0
2018-Jun-09 16:00N 37°49' W 122°25'0 0.0
2018-Jun-09 15:30N 37°49' W 122°25'0 0.0
2018-Jun-08 19:14N 37°49' W 122°25'0 0.0
2018-Jun-08 19:01N 37°49' W 122°25'0 1.0
2018-Jun-08 18:31N 37°49' W 122°26'1 1.0
2018-Jun-08 18:00N 37°49' W 122°26'1 2.2
2018-Jun-08 17:31N 37°49' W 122°25'1 2.6
2018-Jun-08 17:00N 37°50' W 122°25'1 2.3
2018-Jun-08 16:30N 37°49' W 122°25'0 0.8
2018-Jun-08 16:00N 37°49' W 122°25'0 0.1
2018-Jun-08 15:30N 37°49' W 122°25'0 0.0
2018-Jun-08 15:00N 37°49' W 122°25'0 0.0
2018-Jun-08 14:30N 37°49' W 122°25'0 0.0
2018-Jun-08 00:01N 37°49' W 122°25'0 0.0
2018-Jun-08 00:00N 37°49' W 122°25'0 0.0
2018-Jun-07 23:30N 37°49' W 122°25'0 0.0
2018-Jun-07 23:00N 37°49' W 122°25'0 0.1
2018-Jun-07 22:30N 37°49' W 122°25'1 2.8
2018-Jun-07 22:00N 37°50' W 122°26'2 3.6
2018-Jun-07 21:30N 37°51' W 122°27'2 3.2
2018-Jun-07 21:00N 37°50' W 122°27'2 3.1
2018-Jun-07 20:30N 37°49' W 122°26'0 0.6
2018-Jun-07 20:00N 37°49' W 122°25'0 0.0
2018-Jun-07 19:30N 37°49' W 122°25'0 0.0
2018-Jun-07 19:00N 37°49' W 122°25'0 0.0
2018-Jun-07 18:30N 37°49' W 122°25'0 0.0
2018-Jun-07 18:00N 37°49' W 122°25'0 0.0
2018-Jun-07 17:30N 37°49' W 122°25'0 0.0
2018-Jun-07 17:00N 37°49' W 122°25'0 0.0
2018-Jun-07 16:30N 37°49' W 122°25'0 0.0
2018-Jun-07 16:00N 37°49' W 122°25'0 0.0
2018-Jun-07 15:30N 37°49' W 122°25'  
Track history (hours):
 
Tides and Currents Weather Stations Pressure Air Temp Water Temp Dewpoint Dewpoint Depression Visibility Wind Speed Wind Dir Waves Ship Positions

Alma

Owner: National Park Service, San Francisco, CA. More information available from US FCC via Universal Licensing System and Coast Guard Vessel Documentation Center.

Last reported at 2018-Jun-16 23:35 UTC. Time now 2018-Jun-22 03:43 UTC.
Position N 37°49' W 122°25'.

Length 20 m; draft 1.6 m.

Type: Sailing vessel. MMSI: 367432550.

Date/timePositionNaut miles runAvg speedWind from/ knotsBaromVisibWave heightAir tempDewpointWater temp
2018-Jun-16 23:35N 37°49' W 122°25'0 0.0
2018-Jun-16 23:30N 37°49' W 122°25'0 0.0
2018-Jun-16 23:00N 37°49' W 122°25'1 2.4
2018-Jun-16 22:30N 37°48' W 122°24'0 0.6
2018-Jun-16 22:00N 37°48' W 122°24'1 1.2
2018-Jun-16 21:30N 37°48' W 122°23'3 6.4
2018-Jun-16 21:00N 37°51' W 122°26'1 3.0
2018-Jun-16 20:30N 37°49' W 122°26'1 1.1
2018-Jun-16 20:00N 37°49' W 122°25'0 0.0
2018-Jun-16 19:30N 37°49' W 122°25'0 0.0
2018-Jun-16 19:00N 37°49' W 122°25'0 0.0
2018-Jun-16 18:30N 37°49' W 122°25'0 0.0
2018-Jun-16 18:00N 37°49' W 122°25'0 0.0
2018-Jun-16 17:30N 37°49' W 122°25'0 0.0
2018-Jun-16 17:00N 37°49' W 122°25'0 0.0
2018-Jun-16 16:30N 37°49' W 122°25'0 0.0
2018-Jun-16 16:00N 37°49' W 122°25'0 0.0
2018-Jun-15 22:33N 37°49' W 122°25'0 0.0
2018-Jun-15 22:30N 37°49' W 122°25'0 0.1
2018-Jun-15 22:00N 37°49' W 122°25'2 4.7
2018-Jun-15 21:30N 37°48' W 122°22'0 0.8
2018-Jun-15 21:00N 37°48' W 122°22'2 3.9
2018-Jun-15 20:30N 37°50' W 122°24'2 3.7
2018-Jun-15 20:00N 37°52' W 122°25'1 2.0
2018-Jun-15 19:30N 37°52' W 122°26'2 4.6
2018-Jun-15 19:00N 37°52' W 122°28'0 0.3
2018-Jun-15 18:30N 37°52' W 122°28'2 4.5
2018-Jun-15 18:00N 37°50' W 122°27'1 3.0
2018-Jun-15 17:30N 37°49' W 122°26'0 0.6
2018-Jun-15 17:00N 37°49' W 122°25'0 0.0
2018-Jun-15 16:30N 37°49' W 122°25'0 0.0
2018-Jun-15 16:00N 37°49' W 122°25'0 0.0
2018-Jun-15 15:30N 37°49' W 122°25'0 0.0
2018-Jun-15 15:00N 37°49' W 122°25'  
2018-Jun-09 23:24N 37°49' W 122°25'0 0.0
2018-Jun-09 23:00N 37°49' W 122°25'0 0.6
2018-Jun-09 22:30N 37°49' W 122°26'2 4.3
2018-Jun-09 22:01N 37°50' W 122°28'0 0.6
2018-Jun-09 21:31N 37°50' W 122°27'1 1.5
2018-Jun-09 21:01N 37°49' W 122°27'1 2.1
2018-Jun-09 20:31N 37°49' W 122°26'0 0.6
2018-Jun-09 20:00N 37°49' W 122°25'0 0.0
2018-Jun-09 19:30N 37°49' W 122°25'0 0.0
2018-Jun-09 19:01N 37°49' W 122°25'0 0.0
2018-Jun-09 18:30N 37°49' W 122°25'0 0.0
2018-Jun-09 18:01N 37°49' W 122°25'0 0.0
2018-Jun-09 17:31N 37°49' W 122°25'0 0.0
2018-Jun-09 17:01N 37°49' W 122°25'0 0.0
2018-Jun-09 16:30N 37°49' W 122°25'0 0.0
2018-Jun-09 16:00N 37°49' W 122°25'0 0.0
2018-Jun-09 15:30N 37°49' W 122°25'0 0.0
2018-Jun-08 19:14N 37°49' W 122°25'0 0.0
2018-Jun-08 19:01N 37°49' W 122°25'0 1.0
2018-Jun-08 18:31N 37°49' W 122°26'1 1.0
2018-Jun-08 18:00N 37°49' W 122°26'1 2.2
2018-Jun-08 17:31N 37°49' W 122°25'1 2.6
2018-Jun-08 17:00N 37°50' W 122°25'1 2.3
2018-Jun-08 16:30N 37°49' W 122°25'0 0.8
2018-Jun-08 16:00N 37°49' W 122°25'0 0.1
2018-Jun-08 15:30N 37°49' W 122°25'0 0.0
2018-Jun-08 15:00N 37°49' W 122°25'0 0.0
2018-Jun-08 14:30N 37°49' W 122°25'0 0.0
2018-Jun-08 00:01N 37°49' W 122°25'0 0.0
2018-Jun-08 00:00N 37°49' W 122°25'0 0.0
2018-Jun-07 23:30N 37°49' W 122°25'0 0.0
2018-Jun-07 23:00N 37°49' W 122°25'0 0.1
2018-Jun-07 22:30N 37°49' W 122°25'1 2.8
2018-Jun-07 22:00N 37°50' W 122°26'2 3.6
2018-Jun-07 21:30N 37°51' W 122°27'2 3.2
2018-Jun-07 21:00N 37°50' W 122°27'2 3.1
2018-Jun-07 20:30N 37°49' W 122°26'0 0.6
2018-Jun-07 20:00N 37°49' W 122°25'0 0.0
2018-Jun-07 19:30N 37°49' W 122°25'0 0.0
2018-Jun-07 19:00N 37°49' W 122°25'0 0.0
2018-Jun-07 18:30N 37°49' W 122°25'0 0.0
2018-Jun-07 18:00N 37°49' W 122°25'0 0.0
2018-Jun-07 17:30N 37°49' W 122°25'0 0.0
2018-Jun-07 17:00N 37°49' W 122°25'0 0.0
2018-Jun-07 16:30N 37°49' W 122°25'0 0.0
2018-Jun-07 16:00N 37°49' W 122°25'0 0.0
2018-Jun-07 15:30N 37°49' W 122°25'  

Dump ship's entire track history